Airfield :
LOGIN :

Register | Disclaimer

   EN    FR    IT 

 










Legend :    VFR   Marginal VFR   IFR   Intensive IFR   Very Intensive IFR
Visi :
Ceiling :
>= 8 km
>= 3000ft
5 to 8 km
1000 to 3000 ft
1500m to 5 km
500 to 1000 ft
800 to 1500m
200 to 500 ft
< 800m
< 200 ft
Symbols :   Thunderstorms  Fog  Heavy snow  Heavy precipitations  Wind > 20 kt
SIGMETs :     Misc.  Thunderstorms  Icing  Turbulence  Mountain Waves  Volcanic Ashes







- Airport Elevation : 291 ft
- IATA code : ORY
- Download approach charts


LFPO - Paris-Orly

CURRENT METAR :
  • 220700Z 36008KT 330V030 6000 NSC 12/10 Q1029 TEMPO BKN003

EXPIRED METARs :
  • 220630Z 36007KT 320V040 4000 BR NSC 11/09 Q1029 TEMPO BKN003
  • 220600Z 36007KT 4000 BR NSC 12/09 Q1028 TEMPO BKN003
  • 220530Z 36006KT 310V050 6000 NSC 11/09 Q1028 NOSIG
  • 220500Z 35006KT 6000 NSC 11/09 Q1028 NOSIG
  • 220430Z 35008KT 7000 NSC 11/09 Q1027 NOSIG

TAF AMD TAF LFPO
Valid from the 22 at 06:00 until the 23 at 12:00 UTC


220629Z 2206/2312 35006KT 4000 BR SCT003 BKN050
BECMG 2206/2208 6000 BKN004
TEMPO 2208/2210 2000 -DZ BR BKN002
BECMG 2210/2212 BKN008
TEMPO 2212/2218 02015G25KT
BECMG 2213/2215 BKN022
BECMG 2217/2219 CAVOK
PROB30
TEMPO 2304/2307 4000 BR
ATIS : +33 1 49 75 65 80
No reported NOTAMs for that airfield.



MET'MAP, your aeronautical weather chart ! - Copyright ORBIFLY December 2007 - Disclaimer

ORBIFLY MET'MAP TEAM :

Programming & Development : Alexandra Zaïnal
Concept & Development : Baudouin d'Aumeries
Co-Development & Prog : Marc-Olivier Méhu
Technical & hardware support : Manuel Goepfert

Contact : metmap@orbifly.com




SOURCES & CREDITS :

   NOAA